Airfield :
LOGIN :

Register | Disclaimer

   EN    FR    IT 

 










Legend :    VFR   Marginal VFR   IFR   Intensive IFR   Very Intensive IFR
Visi :
Ceiling :
>= 8 km
>= 3000ft
5 to 8 km
1000 to 3000 ft
1500m to 5 km
500 to 1000 ft
800 to 1500m
200 to 500 ft
< 800m
< 200 ft
Symbols :   Thunderstorms  Fog  Heavy snow  Heavy precipitations  Wind > 20 kt
SIGMETs :     Misc.  Thunderstorms  Icing  Turbulence  Mountain Waves  Volcanic Ashes







- Airport Elevation : 479 ft
- IATA code : DOL
- Download approach charts


LFRG - Deauville

CURRENT METAR :
  • 200130Z AUTO 36009KT 310V030 3300 -DZ BR OVC002 08/08 Q1016

EXPIRED METARs :
  • 200100Z AUTO 34009KT 300V020 3900 -RADZ BR OVC002 08/08 Q1016
  • 200030Z AUTO 34008KT 300V020 2000 BR VV/// 08/08 Q1016
  • 200000Z AUTO 34008KT 290V020 2200 BR VV/// 08/08 Q1016
  • 192330Z AUTO 33007KT 300V010 1000 0900 R30/0800U BCFG VV/// 08/08 Q1016
  • 192300Z AUTO 34007KT 300V020 0900 0650 R30/0750D FG VV/// 08/08 Q1016

Expired Forecast.
ATIS : +33 2 31 65 65 36
No reported NOTAMs for that airfield.



MET'MAP, your aeronautical weather chart ! - Copyright ORBIFLY December 2007 - Disclaimer

ORBIFLY MET'MAP TEAM :

Programming & Development : Alexandra Zaïnal
Concept & Development : Baudouin d'Aumeries
Co-Development & Prog : Marc-Olivier Méhu
Technical & hardware support : Manuel Goepfert

Contact : metmap@orbifly.com




SOURCES & CREDITS :

   NOAA